createdAt,value
2019-02-24T00:01:47.723Z,8.33
2019-02-24T00:04:17.466Z,8.32
2019-02-24T00:06:47.038Z,8.25
2019-02-24T00:09:17.770Z,8.28
2019-02-24T00:11:47.587Z,8.25
2019-02-24T00:14:17.044Z,8.22
2019-02-24T00:16:46.767Z,8.20
2019-02-24T00:19:16.314Z,8.19
2019-02-24T00:21:45.657Z,8.17
2019-02-24T00:24:15.614Z,8.17
2019-02-24T00:26:46.768Z,8.16
2019-02-24T00:29:16.100Z,8.14
2019-02-24T00:31:45.813Z,8.13
2019-02-24T00:34:15.166Z,8.07
2019-02-24T00:36:44.389Z,8.01
2019-02-24T00:39:15.826Z,8.01
2019-02-24T00:41:48.948Z,8.00
2019-02-24T00:44:19.240Z,8.01
2019-02-24T00:46:51.831Z,7.97
2019-02-24T00:49:21.834Z,7.95
2019-02-24T00:51:51.840Z,7.95
2019-02-24T00:54:21.981Z,7.93
2019-02-24T00:56:51.392Z,7.93
2019-02-24T00:59:21.059Z,7.91
2019-02-24T01:01:51.682Z,7.89
2019-02-24T01:04:20.926Z,7.89
2019-02-24T01:06:50.695Z,7.90
2019-02-24T01:09:20.045Z,7.86
2019-02-24T01:11:49.273Z,7.83
2019-02-24T01:14:18.798Z,7.79
2019-02-24T01:16:48.153Z,7.73
2019-02-24T01:19:17.435Z,7.67
2019-02-24T01:21:46.970Z,7.61
2019-02-24T01:24:16.256Z,7.54
2019-02-24T01:26:45.512Z,7.44
2019-02-24T01:29:15.205Z,7.43
2019-02-24T01:31:44.508Z,7.39
2019-02-24T01:34:13.854Z,7.39
2019-02-24T01:36:46.357Z,7.33
2019-02-24T01:39:15.626Z,7.31
2019-02-24T01:41:44.925Z,7.28
2019-02-24T01:44:14.489Z,7.23
2019-02-24T01:46:45.652Z,7.20
2019-02-24T01:49:14.847Z,7.18
2019-02-24T01:51:44.384Z,7.18
2019-02-24T01:54:13.768Z,7.17
2019-02-24T01:56:43.052Z,7.12
2019-02-24T01:59:12.736Z,7.10
2019-02-24T02:01:42.033Z,7.07
2019-02-24T02:04:13.897Z,7.05
2019-02-24T02:06:43.524Z,7.01
2019-02-24T02:09:12.795Z,6.97
2019-02-24T02:11:42.124Z,6.93
2019-02-24T02:14:14.088Z,6.88
2019-02-24T02:16:45.263Z,6.82
2019-02-24T02:19:14.480Z,6.80
2019-02-24T02:21:44.314Z,6.78
2019-02-24T02:24:13.665Z,6.68
2019-02-24T02:26:42.877Z,6.65
2019-02-24T02:29:12.495Z,6.66
2019-02-24T02:31:41.884Z,6.62
2019-02-24T02:34:11.106Z,6.57
2019-02-24T02:36:40.665Z,6.55
2019-02-24T02:39:10.201Z,6.51
2019-02-24T02:41:39.443Z,6.41
2019-02-24T02:44:08.966Z,6.48
2019-02-24T02:46:38.236Z,6.50
2019-02-24T02:49:07.455Z,6.48
2019-02-24T02:51:36.973Z,6.40
2019-02-24T02:54:09.406Z,6.38
2019-02-24T02:56:38.597Z,6.39
2019-02-24T02:59:07.814Z,6.41
2019-02-24T03:01:37.038Z,6.30
2019-02-24T03:04:06.583Z,6.30
2019-02-24T03:06:40.997Z,6.28
2019-02-24T03:09:11.607Z,6.29
2019-02-24T03:11:42.104Z,6.34
2019-02-24T03:14:11.338Z,6.35
2019-02-24T03:16:40.563Z,6.27
2019-02-24T03:19:10.048Z,6.21
2019-02-24T03:21:39.288Z,6.16
2019-02-24T03:24:08.818Z,6.12
2019-02-24T03:26:38.606Z,6.08
2019-02-24T03:29:07.880Z,6.03
2019-02-24T03:31:37.120Z,5.97
2019-02-24T03:34:06.629Z,5.86
2019-02-24T03:36:35.870Z,5.87
2019-02-24T03:39:05.577Z,5.82
2019-02-24T03:41:34.828Z,5.77
2019-02-24T03:44:07.286Z,5.78
2019-02-24T03:46:36.528Z,5.74
2019-02-24T03:49:06.062Z,5.70
2019-02-24T03:51:35.309Z,5.69
2019-02-24T03:54:07.384Z,5.65
2019-02-24T03:56:37.010Z,5.62
2019-02-24T03:59:14.657Z,5.56
2019-02-24T04:01:37.191Z,5.57
2019-02-24T04:04:06.748Z,5.47
2019-02-24T04:06:35.998Z,5.52
2019-02-24T04:09:06.170Z,5.44
2019-02-24T04:11:35.660Z,5.47
2019-02-24T04:14:07.700Z,5.44
2019-02-24T04:16:36.920Z,5.41
2019-02-24T04:19:06.211Z,5.41
2019-02-24T04:21:35.772Z,5.39
2019-02-24T04:24:08.107Z,5.41
2019-02-24T04:26:37.314Z,5.25
2019-02-24T04:29:06.577Z,5.25
2019-02-24T04:31:35.851Z,5.31
2019-02-24T04:34:06.188Z,5.23
2019-02-24T04:36:35.770Z,5.27
2019-02-24T04:39:07.858Z,5.22
2019-02-24T04:41:37.594Z,5.18
2019-02-24T04:44:07.058Z,5.19
2019-02-24T04:46:36.288Z,5.11
2019-02-24T04:49:07.825Z,5.16
2019-02-24T04:51:37.351Z,5.14
2019-02-24T04:54:06.666Z,5.12
2019-02-24T04:56:35.893Z,5.12
2019-02-24T04:59:05.271Z,5.04
2019-02-24T05:01:34.501Z,5.10
2019-02-24T05:04:06.739Z,5.01
2019-02-24T05:06:36.332Z,4.99
2019-02-24T05:09:05.698Z,4.94
2019-02-24T05:11:35.780Z,4.96
2019-02-24T05:14:06.929Z,4.93
2019-02-24T05:16:36.167Z,4.90
2019-02-24T05:19:05.399Z,4.90
2019-02-24T05:21:34.663Z,4.88
2019-02-24T05:24:06.302Z,4.84
2019-02-24T05:26:35.568Z,4.81
2019-02-24T05:29:04.831Z,4.76
2019-02-24T05:31:34.045Z,4.74
2019-02-24T05:34:03.927Z,4.74
2019-02-24T05:36:33.175Z,4.70
2019-02-24T05:39:02.674Z,4.73
2019-02-24T05:41:31.883Z,4.73
2019-02-24T05:44:01.226Z,4.68
2019-02-24T05:46:30.775Z,4.68
2019-02-24T05:49:00.003Z,4.66
2019-02-24T05:51:29.326Z,4.63
2019-02-24T05:53:58.666Z,4.63
2019-02-24T05:56:28.174Z,4.56
2019-02-24T05:58:57.475Z,4.58
2019-02-24T06:01:26.687Z,4.61
2019-02-24T06:03:56.519Z,4.61
2019-02-24T06:06:26.159Z,4.66
2019-02-24T06:08:55.402Z,4.68
2019-02-24T06:11:24.651Z,4.73
2019-02-24T06:13:54.225Z,4.72
2019-02-24T06:16:23.417Z,4.72
2019-02-24T06:18:52.637Z,4.70
2019-02-24T06:21:21.877Z,4.65
2019-02-24T06:23:51.124Z,4.76
2019-02-24T06:26:20.343Z,4.76
2019-02-24T06:28:49.906Z,4.76
2019-02-24T06:31:19.130Z,4.79
2019-02-24T06:33:48.357Z,4.79
2019-02-24T06:36:17.897Z,4.73
2019-02-24T06:38:47.423Z,4.75
2019-02-24T06:41:16.616Z,4.75
2019-02-24T06:43:45.893Z,4.72
2019-02-24T06:46:15.120Z,4.70
2019-02-24T06:48:44.334Z,4.68
2019-02-24T06:51:14.400Z,4.68
2019-02-24T06:53:43.619Z,4.69
2019-02-24T06:56:12.846Z,4.72
2019-02-24T06:58:42.438Z,4.74
2019-02-24T07:01:11.702Z,4.77
2019-02-24T07:03:40.950Z,4.81
2019-02-24T07:06:10.932Z,4.88
2019-02-24T07:08:40.159Z,4.88
2019-02-24T07:11:09.411Z,4.91
2019-02-24T07:13:39.091Z,4.98
2019-02-24T07:16:08.324Z,4.94
2019-02-24T07:18:37.619Z,4.99
2019-02-24T07:21:06.880Z,4.96
2019-02-24T07:23:36.474Z,5.14
2019-02-24T07:26:05.738Z,5.17
2019-02-24T07:28:34.967Z,5.22
2019-02-24T07:31:04.483Z,5.19
2019-02-24T07:33:33.714Z,5.29
2019-02-24T07:36:05.267Z,5.28
2019-02-24T07:38:34.856Z,5.17
2019-02-24T07:41:04.155Z,5.23
2019-02-24T07:43:33.606Z,5.22
2019-02-24T07:46:03.939Z,5.22
2019-02-24T07:48:33.200Z,5.31
2019-02-24T07:51:02.810Z,5.37
2019-02-24T07:53:32.106Z,5.53
2019-02-24T07:56:01.331Z,5.82
2019-02-24T07:58:31.010Z,6.32
2019-02-24T08:01:00.217Z,7.38
2019-02-24T08:03:29.449Z,8.31
2019-02-24T08:05:59.362Z,9.35
2019-02-24T08:08:28.597Z,10.17
2019-02-24T08:10:58.178Z,11.56
2019-02-24T08:13:27.407Z,12.47
2019-02-24T08:18:33.842Z,13.34
2019-02-24T08:21:04.379Z,13.41
2019-02-24T08:23:34.156Z,13.55
2019-02-24T08:26:06.553Z,13.36
2019-02-24T08:28:35.837Z,13.17
2019-02-24T08:31:07.957Z,12.79
2019-02-24T08:33:37.470Z,12.58
2019-02-24T08:36:07.017Z,12.65
2019-02-24T08:38:36.764Z,12.62
2019-02-24T08:41:06.081Z,12.56
2019-02-24T08:43:35.349Z,12.56
2019-02-24T08:46:05.891Z,12.29
2019-02-24T08:48:35.251Z,12.16
2019-02-24T08:51:04.785Z,12.13
2019-02-24T08:53:35.682Z,11.82
2019-02-24T08:56:06.360Z,11.61
2019-02-24T08:58:35.612Z,11.56
2019-02-24T09:01:05.217Z,11.53
2019-02-24T09:03:34.606Z,11.44
2019-02-24T09:06:06.780Z,11.38
2019-02-24T09:08:36.652Z,11.22
2019-02-24T09:11:12.021Z,11.09
2019-02-24T09:13:41.594Z,11.28
2019-02-24T09:16:12.301Z,11.40
2019-02-24T09:18:41.611Z,11.22
2019-02-24T09:21:12.906Z,11.57
2019-02-24T09:23:42.675Z,11.73
2019-02-24T09:26:12.270Z,11.77
2019-02-24T09:28:41.597Z,12.12
2019-02-24T09:31:11.579Z,12.40
2019-02-24T09:33:41.072Z,12.47
2019-02-24T09:36:11.073Z,12.60
2019-02-24T09:42:12.158Z,13.11
2019-02-24T09:44:41.576Z,13.52
2019-02-24T09:47:10.886Z,13.82
2019-02-24T09:49:40.751Z,14.08
2019-02-24T09:52:10.024Z,14.29
2019-02-24T09:54:39.266Z,14.48
2019-02-24T09:57:08.939Z,14.09
2019-02-24T09:59:38.290Z,14.72
2019-02-24T10:02:07.643Z,14.93
2019-02-24T10:04:37.313Z,15.39
2019-02-24T10:07:06.627Z,15.75
2019-02-24T10:09:35.948Z,16.16
2019-02-24T10:12:08.594Z,16.45
2019-02-24T10:14:37.857Z,16.75
2019-02-24T10:17:07.132Z,17.12
2019-02-24T10:19:36.750Z,17.56
2019-02-24T10:22:08.000Z,17.99
2019-02-24T10:24:37.308Z,18.35
2019-02-24T10:27:07.042Z,18.70
2019-02-24T10:29:36.360Z,19.08
2019-02-24T10:32:08.693Z,19.41
2019-02-24T10:34:38.383Z,19.17
2019-02-24T10:37:07.721Z,19.41
2019-02-24T10:39:37.304Z,19.58
2019-02-24T10:42:06.958Z,19.79
2019-02-24T10:44:36.370Z,19.90
2019-02-24T10:47:08.763Z,20.27
2019-02-24T10:49:38.483Z,20.60
2019-02-24T10:52:07.776Z,20.87
2019-02-24T10:54:37.094Z,21.14
2019-02-24T10:57:09.893Z,21.37
2019-02-24T10:59:37.992Z,21.38
2019-02-24T11:02:07.308Z,21.30
2019-02-24T11:04:38.104Z,21.76
2019-02-24T11:07:07.416Z,22.08
2019-02-24T11:09:36.807Z,22.39
2019-02-24T11:12:06.523Z,22.63
2019-02-24T11:14:35.845Z,23.16
2019-02-24T11:17:05.171Z,23.44
2019-02-24T11:19:34.834Z,23.79
2019-02-24T11:22:05.161Z,24.05
2019-02-24T11:24:34.685Z,24.08
2019-02-24T11:27:04.622Z,24.18
2019-02-24T11:29:34.023Z,24.63
2019-02-24T11:32:06.299Z,25.09
2019-02-24T11:34:35.977Z,25.53
2019-02-24T11:37:05.350Z,25.75
2019-02-24T11:39:35.669Z,26.21
2019-02-24T11:42:06.040Z,26.61
2019-02-24T11:44:35.321Z,26.46
2019-02-24T11:47:04.664Z,26.99
2019-02-24T11:49:34.036Z,27.26
2019-02-24T11:52:06.264Z,27.54
2019-02-24T11:54:35.865Z,27.80
2019-02-24T11:57:05.434Z,28.09
2019-02-24T11:59:34.962Z,28.36
2019-02-24T12:02:05.946Z,28.91
2019-02-24T12:04:35.652Z,29.26
2019-02-24T12:07:05.221Z,29.31
2019-02-24T12:09:35.067Z,28.96
2019-02-24T12:12:07.435Z,28.69
2019-02-24T12:14:37.083Z,28.79
2019-02-24T12:17:06.686Z,28.64
2019-02-24T12:19:36.286Z,28.49
2019-02-24T12:22:09.100Z,28.46
2019-02-24T12:24:38.712Z,28.54
2019-02-24T12:27:09.351Z,28.51
2019-02-24T12:29:39.206Z,28.52
2019-02-24T12:32:08.802Z,28.40
2019-02-24T12:34:38.418Z,27.97
2019-02-24T12:37:09.366Z,28.14
2019-02-24T12:39:38.884Z,28.42
2019-02-24T12:42:08.481Z,28.56
2019-02-24T12:44:38.372Z,28.62
2019-02-24T12:47:07.928Z,28.71
2019-02-24T12:49:37.590Z,28.45
2019-02-24T12:52:07.623Z,28.34
2019-02-24T12:54:37.369Z,28.07
2019-02-24T12:57:07.210Z,27.90
2019-02-24T12:59:37.146Z,27.75
2019-02-24T13:02:06.739Z,27.62
2019-02-24T13:04:36.342Z,27.41
2019-02-24T13:07:06.268Z,27.12
2019-02-24T13:09:35.805Z,26.74
2019-02-24T13:12:06.718Z,26.66
2019-02-24T13:14:36.774Z,26.64
2019-02-24T13:17:06.379Z,26.73
2019-02-24T13:19:36.186Z,26.36
2019-02-24T13:22:06.393Z,26.76
2019-02-24T13:24:36.016Z,26.80
2019-02-24T13:27:06.037Z,26.54
2019-02-24T13:29:35.829Z,26.67
2019-02-24T13:32:14.635Z,26.62
2019-02-24T13:34:38.323Z,26.63
2019-02-24T13:37:08.015Z,26.54
2019-02-24T13:39:37.966Z,26.54
2019-02-24T13:42:07.730Z,26.43
2019-02-24T13:44:37.348Z,26.38
2019-02-24T13:47:08.620Z,26.38
2019-02-24T13:49:38.217Z,26.28
2019-02-24T13:52:07.836Z,26.34
2019-02-24T13:54:37.880Z,25.97
2019-02-24T13:57:07.577Z,25.65
2019-02-24T13:59:37.255Z,25.77
2019-02-24T14:02:07.426Z,25.83
2019-02-24T14:04:37.135Z,25.56
2019-02-24T14:07:06.841Z,25.08
2019-02-24T14:09:36.848Z,24.49
2019-02-24T14:12:09.706Z,23.92
2019-02-24T14:14:39.563Z,23.43
2019-02-24T14:17:09.852Z,23.47
2019-02-24T14:19:39.858Z,23.64
2019-02-24T14:22:09.863Z,23.76
2019-02-24T14:24:39.806Z,23.69
2019-02-24T14:27:09.572Z,23.36
2019-02-24T14:29:40.283Z,23.02
2019-02-24T14:32:10.259Z,22.63
2019-02-24T14:34:39.998Z,22.35
2019-02-24T14:37:09.692Z,22.13
2019-02-24T14:39:39.750Z,22.26
2019-02-24T14:42:09.522Z,22.48
2019-02-24T14:44:39.236Z,22.65
2019-02-24T14:47:09.249Z,22.45
2019-02-24T14:49:38.996Z,22.25
2019-02-24T14:52:09.975Z,21.96
2019-02-24T14:54:39.998Z,21.62
2019-02-24T14:57:09.783Z,21.38
2019-02-24T14:59:39.476Z,21.18
2019-02-24T15:02:09.466Z,20.91
2019-02-24T15:04:39.926Z,20.65
2019-02-24T15:07:09.755Z,20.36
2019-02-24T15:12:13.760Z,20.10
2019-02-24T15:14:43.955Z,19.88
2019-02-24T15:17:14.173Z,19.71
2019-02-24T15:19:44.397Z,19.53
2019-02-24T15:22:14.401Z,19.37
2019-02-24T15:24:44.391Z,19.22
2019-02-24T15:27:14.132Z,19.14
2019-02-24T15:29:43.833Z,18.95
2019-02-24T15:32:13.821Z,18.85
2019-02-24T15:34:43.560Z,18.74
2019-02-24T15:37:13.385Z,18.72
2019-02-24T15:39:43.911Z,18.72
2019-02-24T15:42:14.085Z,18.80
2019-02-24T15:44:43.762Z,18.96
2019-02-24T15:47:13.891Z,19.31
2019-02-24T15:49:43.690Z,19.73
2019-02-24T15:52:13.448Z,20.12
2019-02-24T15:54:43.514Z,20.41
2019-02-24T15:57:13.226Z,20.65
2019-02-24T15:59:42.932Z,20.89
2019-02-24T16:02:13.239Z,21.10
2019-02-24T16:04:43.052Z,21.27
2019-02-24T16:07:13.165Z,21.40
2019-02-24T16:09:43.240Z,21.45
2019-02-24T16:12:13.102Z,21.49
2019-02-24T16:14:43.217Z,21.47
2019-02-24T16:17:19.780Z,21.42
2019-02-24T16:19:49.522Z,21.41
2019-02-24T16:22:19.598Z,21.14
2019-02-24T16:24:49.385Z,20.66
2019-02-24T16:27:19.101Z,20.18
2019-02-24T16:29:49.107Z,19.69
2019-02-24T16:32:19.284Z,19.31
2019-02-24T16:34:48.990Z,18.93
2019-02-24T16:37:20.042Z,18.55
2019-02-24T16:39:49.777Z,18.21
2019-02-24T16:42:19.548Z,17.95
2019-02-24T16:44:49.892Z,17.76
2019-02-24T16:47:19.641Z,17.59
2019-02-24T16:49:49.467Z,17.36
2019-02-24T16:52:19.491Z,17.18
2019-02-24T16:54:52.614Z,17.00
2019-02-24T16:57:20.858Z,16.84
2019-02-24T16:59:51.924Z,16.63
2019-02-24T17:02:23.058Z,16.48
2019-02-24T17:04:53.070Z,16.32
2019-02-24T17:07:23.066Z,16.22
2019-02-24T17:09:52.814Z,16.13
2019-02-24T17:12:23.529Z,15.96
2019-02-24T17:14:53.527Z,15.87
2019-02-24T17:17:24.686Z,15.71
2019-02-24T17:19:54.389Z,15.59
2019-02-24T17:22:24.562Z,15.53
2019-02-24T17:24:54.345Z,15.44
2019-02-24T17:27:24.084Z,15.37
2019-02-24T17:29:54.217Z,15.27
2019-02-24T17:32:24.131Z,15.13
2019-02-24T17:34:53.843Z,15.02
2019-02-24T17:37:23.853Z,14.94
2019-02-24T17:39:53.728Z,14.86
2019-02-24T17:42:24.718Z,14.82
2019-02-24T17:44:54.951Z,14.75
2019-02-24T17:47:24.728Z,14.65
2019-02-24T17:49:57.796Z,14.59
2019-02-24T17:52:27.840Z,14.53
2019-02-24T17:54:57.966Z,14.47
2019-02-24T17:57:27.870Z,14.43
2019-02-24T17:59:58.458Z,14.45
2019-02-24T18:02:28.734Z,14.39
2019-02-24T18:04:58.454Z,14.35
2019-02-24T18:07:28.476Z,14.31
2019-02-24T18:10:03.020Z,14.22
2019-02-24T18:12:34.004Z,14.14
2019-02-24T18:15:03.873Z,14.12
2019-02-24T18:17:33.776Z,14.07
2019-02-24T18:20:05.496Z,14.00
2019-02-24T18:22:35.244Z,13.98
2019-02-24T18:25:05.439Z,13.94
2019-02-24T18:27:35.269Z,13.83
2019-02-24T18:30:07.621Z,13.83
2019-02-24T18:32:37.786Z,13.76
2019-02-24T18:35:07.759Z,13.72
2019-02-24T18:37:37.495Z,13.71
2019-02-24T18:40:08.119Z,13.67
2019-02-24T18:42:39.512Z,13.63
2019-02-24T18:45:10.036Z,13.63
2019-02-24T18:47:44.122Z,13.57
2019-02-24T18:50:14.086Z,13.54
2019-02-24T18:52:43.956Z,13.49
2019-02-24T18:55:21.668Z,13.45
2019-02-24T18:57:51.365Z,13.46
2019-02-24T19:00:21.211Z,13.45
2019-02-24T19:02:51.255Z,13.42
2019-02-24T19:05:21.080Z,13.38
2019-02-24T19:07:52.232Z,13.37
2019-02-24T19:10:22.084Z,13.34
2019-02-24T19:12:51.996Z,13.33
2019-02-24T19:15:21.822Z,13.22
2019-02-24T19:17:51.611Z,13.22
2019-02-24T19:20:22.232Z,13.20
2019-02-24T19:22:52.076Z,13.17
2019-02-24T19:25:22.202Z,13.07
2019-02-24T19:27:52.847Z,13.06
2019-02-24T19:30:22.681Z,13.06
2019-02-24T19:32:52.854Z,13.05
2019-02-24T19:35:22.691Z,13.01
2019-02-24T19:38:00.423Z,12.97
2019-02-24T19:40:30.486Z,12.95
2019-02-24T19:43:00.257Z,12.91
2019-02-24T19:45:30.197Z,12.89
2019-02-24T19:48:00.359Z,12.89
2019-02-24T19:50:30.311Z,12.84
2019-02-24T19:53:00.256Z,12.79
2019-02-24T19:55:31.354Z,12.71
2019-02-24T19:58:01.385Z,12.70
2019-02-24T20:00:31.484Z,12.66
2019-02-24T20:03:01.723Z,12.60
2019-02-24T20:05:31.626Z,12.54
2019-02-24T20:08:01.373Z,12.48
2019-02-24T20:10:31.557Z,12.44
2019-02-24T20:13:01.339Z,12.41
2019-02-24T20:15:31.246Z,12.38
2019-02-24T20:18:05.811Z,12.33
2019-02-24T20:20:35.612Z,12.30
2019-02-24T20:23:05.800Z,12.25
2019-02-24T20:25:35.605Z,12.25
2019-02-24T20:28:06.190Z,12.21
2019-02-24T20:30:36.374Z,12.15
2019-02-24T20:33:06.259Z,12.14
2019-02-24T20:35:36.021Z,12.12
2019-02-24T20:38:09.037Z,12.08
2019-02-24T20:40:39.052Z,12.08
2019-02-24T20:43:08.786Z,12.04
2019-02-24T20:45:39.758Z,12.00
2019-02-24T20:48:09.689Z,11.95
2019-02-24T20:50:39.427Z,11.95
2019-02-24T20:53:09.550Z,11.94
2019-02-24T20:55:39.640Z,11.89
2019-02-24T20:58:09.623Z,11.82
2019-02-24T21:00:40.931Z,11.82
2019-02-24T21:03:11.008Z,11.78
2019-02-24T21:05:40.913Z,11.77
2019-02-24T21:08:11.374Z,11.72
2019-02-24T21:10:41.323Z,11.69
2019-02-24T21:13:11.082Z,11.66
2019-02-24T21:15:41.233Z,11.59
2019-02-24T21:18:11.233Z,11.51
2019-02-24T21:20:40.988Z,11.50
2019-02-24T21:23:11.327Z,11.46
2019-02-24T21:25:41.099Z,11.44
2019-02-24T21:28:10.842Z,11.45
2019-02-24T21:30:40.827Z,11.39
2019-02-24T21:33:10.713Z,11.38
2019-02-24T21:35:40.411Z,11.34
2019-02-24T21:38:10.475Z,11.32
2019-02-24T21:40:40.450Z,11.28
2019-02-24T21:43:10.142Z,11.22
2019-02-24T21:45:41.645Z,11.18
2019-02-24T21:48:11.643Z,11.16
2019-02-24T21:50:41.332Z,11.14
2019-02-24T21:53:11.333Z,11.12
2019-02-24T21:55:40.971Z,11.10
2019-02-24T21:58:10.707Z,11.07
2019-02-24T22:00:40.832Z,11.04
2019-02-24T22:03:10.341Z,10.97
2019-02-24T22:05:39.648Z,10.94
2019-02-24T22:08:08.974Z,10.93
2019-02-24T22:10:39.099Z,10.89
2019-02-24T22:13:08.428Z,10.82
2019-02-24T22:15:37.743Z,10.81
2019-02-24T22:18:07.084Z,10.78
2019-02-24T22:20:36.314Z,10.74
2019-02-24T22:23:06.273Z,10.70
2019-02-24T22:25:35.935Z,10.66
2019-02-24T22:28:10.987Z,10.64
2019-02-24T22:30:42.320Z,10.66
2019-02-24T22:33:11.864Z,10.60
2019-02-24T22:35:41.224Z,10.60
2019-02-24T22:38:10.567Z,10.56
2019-02-24T22:40:39.887Z,10.53
2019-02-24T22:43:10.905Z,10.53
2019-02-24T22:45:40.246Z,10.51
2019-02-24T22:48:09.492Z,10.49
2019-02-24T22:50:39.055Z,10.43
2019-02-24T22:53:08.397Z,10.42
2019-02-24T22:55:37.786Z,10.41
2019-02-24T22:58:07.629Z,10.36
2019-02-24T23:00:53.530Z,10.35
2019-02-24T23:03:23.728Z,10.33
2019-02-24T23:05:53.152Z,10.30
2019-02-24T23:08:22.501Z,10.23
2019-02-24T23:10:52.668Z,10.25
2019-02-24T23:13:21.907Z,10.21
2019-02-24T23:15:51.307Z,10.16
2019-02-24T23:18:22.280Z,10.12
2019-02-24T23:20:51.577Z,10.08
2019-02-24T23:23:20.899Z,10.04
2019-02-24T23:25:50.696Z,10.02
2019-02-24T23:28:20.146Z,9.99
2019-02-24T23:30:49.804Z,9.94
2019-02-24T23:33:19.556Z,9.91
2019-02-24T23:35:48.836Z,9.88
2019-02-24T23:38:18.121Z,9.84
2019-02-24T23:40:47.829Z,9.83
2019-02-24T23:43:17.059Z,9.77
2019-02-24T23:45:46.340Z,9.75
2019-02-24T23:48:15.578Z,9.69
2019-02-24T23:50:44.827Z,9.66
2019-02-24T23:53:14.190Z,9.61
2019-02-24T23:55:44.719Z,9.58
2019-02-24T23:58:14.021Z,9.54
